KMTO/MTO METAR and TAF weather

Enter ICAO airport designator
Station Type Date Time Source
KMTO METAR 2020/08/12 17:53 UTC NOAA

KMTO 121753Z AUTO 06005KT 10SM CLR 28/21 A3006 RMK AO2 SLP173 T02780206 10283 20194 58003


Station Type Date Time Source
KMTO Decoded METAR 2020/08/12 17:53 UTC NOAA

MATTOON/CHARLESTON COLES CO, IL, United States (KMTO) 39-28N 88-16W 214M
Aug 12, 2020 - 01:53 PM EDT / 2020.08.12 1753 UTC
Wind: from the ENE (060 degrees) at 6 MPH (5 KT):0
Visibility: 10 mile(s):0
Sky conditions: clear
Temperature: 82.0 F (27.8 C)
Dew Point: 69.1 F (20.6 C)
Relative Humidity: 64%
Pressure (altimeter): 30.06 in. Hg (1017 hPa)
Pressure tendency: 0.01 inches (0.3 hPa) lower than three hours ago
ob: KMTO 121753Z AUTO 06005KT 10SM CLR 28/21 A3006 RMK AO2 SLP173 T02780206 10283 20194 58003
cycle: 18

Station Type Date Time Source
KMTO TAF UTC NOAA

Error!

Example: see airport list